sensor_id;sensor_type;location;lat;lon;timestamp;P1;durP1;ratioP1;P2;durP2;ratioP2
61477;SDS011;47345;52.334;10.392;2022-12-07T00:00:25;9.70;;;6.30;;
61477;SDS011;47345;52.334;10.392;2022-12-07T00:02:56;10.00;;;7.30;;
61477;SDS011;47345;52.334;10.392;2022-12-07T00:05:26;9.10;;;7.20;;
61477;SDS011;47345;52.334;10.392;2022-12-07T00:07:58;10.10;;;7.10;;
61477;SDS011;47345;52.334;10.392;2022-12-07T00:10:29;10.90;;;7.00;;
61477;SDS011;47345;52.334;10.392;2022-12-07T00:13:01;8.80;;;6.30;;
61477;SDS011;47345;52.334;10.392;2022-12-07T00:15:32;9.50;;;6.70;;
61477;SDS011;47345;52.334;10.392;2022-12-07T00:18:04;10.20;;;6.80;;
61477;SDS011;47345;52.334;10.392;2022-12-07T00:20:34;10.40;;;6.30;;
61477;SDS011;47345;52.334;10.392;2022-12-07T00:23:05;9.70;;;7.00;;
61477;SDS011;47345;52.334;10.392;2022-12-07T00:25:36;10.60;;;7.60;;
61477;SDS011;47345;52.334;10.392;2022-12-07T00:28:07;10.30;;;6.30;;
61477;SDS011;47345;52.334;10.392;2022-12-07T00:30:38;12.50;;;7.40;;
61477;SDS011;47345;52.334;10.392;2022-12-07T00:33:09;7.60;;;5.20;;
61477;SDS011;47345;52.334;10.392;2022-12-07T00:35:40;12.70;;;7.90;;
61477;SDS011;47345;52.334;10.392;2022-12-07T00:38:11;10.50;;;7.20;;
61477;SDS011;47345;52.334;10.392;2022-12-07T00:40:42;11.90;;;7.30;;
61477;SDS011;47345;52.334;10.392;2022-12-07T00:43:12;9.00;;;6.80;;
61477;SDS011;47345;52.334;10.392;2022-12-07T00:45:43;9.80;;;7.10;;
61477;SDS011;47345;52.334;10.392;2022-12-07T00:48:15;9.10;;;6.50;;
61477;SDS011;47345;52.334;10.392;2022-12-07T00:50:45;9.40;;;7.00;;
61477;SDS011;47345;52.334;10.392;2022-12-07T00:53:16;13.10;;;8.40;;
61477;SDS011;47345;52.334;10.392;2022-12-07T00:55:47;8.30;;;6.50;;
61477;SDS011;47345;52.334;10.392;2022-12-07T00:58:18;8.20;;;6.30;;
61477;SDS011;47345;52.334;10.392;2022-12-07T01:00:49;10.40;;;7.30;;
61477;SDS011;47345;52.334;10.392;2022-12-07T01:03:20;9.70;;;6.70;;
61477;SDS011;47345;52.334;10.392;2022-12-07T01:05:51;10.30;;;6.80;;
61477;SDS011;47345;52.334;10.392;2022-12-07T01:08:23;10.10;;;7.10;;
61477;SDS011;47345;52.334;10.392;2022-12-07T01:10:59;13.30;;;7.90;;
61477;SDS011;47345;52.334;10.392;2022-12-07T01:13:30;8.60;;;6.60;;
61477;SDS011;47345;52.334;10.392;2022-12-07T01:16:03;10.40;;;7.80;;
61477;SDS011;47345;52.334;10.392;2022-12-07T01:18:35;11.60;;;7.50;;
61477;SDS011;47345;52.334;10.392;2022-12-07T01:21:07;11.70;;;8.10;;
61477;SDS011;47345;52.334;10.392;2022-12-07T01:23:40;11.40;;;7.80;;
61477;SDS011;47345;52.334;10.392;2022-12-07T01:26:12;10.60;;;7.00;;
61477;SDS011;47345;52.334;10.392;2022-12-07T01:28:45;10.70;;;7.80;;
61477;SDS011;47345;52.334;10.392;2022-12-07T01:31:17;10.30;;;7.60;;
61477;SDS011;47345;52.334;10.392;2022-12-07T01:33:51;10.50;;;7.50;;
61477;SDS011;47345;52.334;10.392;2022-12-07T01:36:23;14.70;;;9.20;;
61477;SDS011;47345;52.334;10.392;2022-12-07T01:38:55;13.50;;;7.50;;
61477;SDS011;47345;52.334;10.392;2022-12-07T01:41:28;10.50;;;8.00;;
61477;SDS011;47345;52.334;10.392;2022-12-07T01:44:13;11.50;;;7.70;;
61477;SDS011;47345;52.334;10.392;2022-12-07T01:46:46;11.60;;;7.30;;
61477;SDS011;47345;52.334;10.392;2022-12-07T01:49:25;11.00;;;7.30;;
61477;SDS011;47345;52.334;10.392;2022-12-07T01:52:00;11.60;;;7.60;;
61477;SDS011;47345;52.334;10.392;2022-12-07T01:54:38;11.20;;;7.70;;
61477;SDS011;47345;52.334;10.392;2022-12-07T01:57:09;12.60;;;7.80;;
61477;SDS011;47345;52.334;10.392;2022-12-07T01:59:40;11.70;;;7.60;;
61477;SDS011;47345;52.334;10.392;2022-12-07T02:02:13;10.00;;;6.70;;
61477;SDS011;47345;52.334;10.392;2022-12-07T02:04:47;11.00;;;7.30;;
61477;SDS011;47345;52.334;10.392;2022-12-07T02:07:20;12.00;;;7.20;;
61477;SDS011;47345;52.334;10.392;2022-12-07T02:09:52;10.80;;;7.50;;
61477;SDS011;47345;52.334;10.392;2022-12-07T02:12:23;8.90;;;6.80;;
61477;SDS011;47345;52.334;10.392;2022-12-07T02:14:54;10.90;;;7.70;;
61477;SDS011;47345;52.334;10.392;2022-12-07T02:17:28;9.20;;;6.40;;
61477;SDS011;47345;52.334;10.392;2022-12-07T02:26:06;9.80;;;6.70;;
61477;SDS011;47345;52.334;10.392;2022-12-07T02:29:04;6.30;;;4.90;;
61477;SDS011;47345;52.334;10.392;2022-12-07T02:31:44;7.60;;;5.70;;
61477;SDS011;47345;52.334;10.392;2022-12-07T02:34:22;10.00;;;6.60;;
61477;SDS011;47345;52.334;10.392;2022-12-07T02:37:00;9.20;;;6.60;;
61477;SDS011;47345;52.334;10.392;2022-12-07T02:39:40;8.00;;;6.30;;
61477;SDS011;47345;52.334;10.392;2022-12-07T02:44:46;5.80;;;4.70;;
61477;SDS011;47345;52.334;10.392;2022-12-07T02:47:17;9.80;;;6.80;;
61477;SDS011;47345;52.334;10.392;2022-12-07T02:49:50;9.50;;;6.20;;
61477;SDS011;47345;52.334;10.392;2022-12-07T02:52:21;7.60;;;5.50;;
61477;SDS011;47345;52.334;10.392;2022-12-07T02:54:51;8.60;;;6.00;;
61477;SDS011;47345;52.334;10.392;2022-12-07T02:57:29;9.50;;;6.60;;
61477;SDS011;47345;52.334;10.392;2022-12-07T03:00:11;8.10;;;5.90;;
61477;SDS011;47345;52.334;10.392;2022-12-07T03:02:52;7.50;;;5.40;;
61477;SDS011;47345;52.334;10.392;2022-12-07T03:08:27;8.70;;;5.90;;
61477;SDS011;47345;52.334;10.392;2022-12-07T03:11:06;8.00;;;5.80;;
61477;SDS011;47345;52.334;10.392;2022-12-07T03:16:18;7.30;;;5.50;;
61477;SDS011;47345;52.334;10.392;2022-12-07T03:18:52;8.90;;;6.00;;
61477;SDS011;47345;52.334;10.392;2022-12-07T03:21:26;9.70;;;6.60;;
61477;SDS011;47345;52.334;10.392;2022-12-07T03:24:00;8.50;;;5.80;;
61477;SDS011;47345;52.334;10.392;2022-12-07T03:26:36;10.10;;;7.10;;
61477;SDS011;47345;52.334;10.392;2022-12-07T03:29:11;9.20;;;7.00;;
61477;SDS011;47345;52.334;10.392;2022-12-07T03:34:21;6.50;;;4.70;;
61477;SDS011;47345;52.334;10.392;2022-12-07T03:36:58;9.20;;;6.10;;
61477;SDS011;47345;52.334;10.392;2022-12-07T03:39:34;5.70;;;4.60;;
61477;SDS011;47345;52.334;10.392;2022-12-07T03:42:09;8.70;;;6.80;;
61477;SDS011;47345;52.334;10.392;2022-12-07T03:44:41;11.90;;;7.00;;
61477;SDS011;47345;52.334;10.392;2022-12-07T03:47:12;6.00;;;5.10;;
61477;SDS011;47345;52.334;10.392;2022-12-07T03:49:49;9.40;;;6.70;;
61477;SDS011;47345;52.334;10.392;2022-12-07T03:52:25;8.30;;;4.00;;
61477;SDS011;47345;52.334;10.392;2022-12-07T03:55:02;8.10;;;5.70;;
61477;SDS011;47345;52.334;10.392;2022-12-07T03:57:38;6.50;;;5.10;;
61477;SDS011;47345;52.334;10.392;2022-12-07T04:00:12;7.10;;;5.30;;
61477;SDS011;47345;52.334;10.392;2022-12-07T04:02:43;7.40;;;5.40;;
61477;SDS011;47345;52.334;10.392;2022-12-07T04:05:15;7.10;;;5.40;;
61477;SDS011;47345;52.334;10.392;2022-12-07T04:07:45;6.30;;;4.50;;
61477;SDS011;47345;52.334;10.392;2022-12-07T04:10:16;6.70;;;4.70;;
61477;SDS011;47345;52.334;10.392;2022-12-07T04:12:46;9.10;;;6.20;;
61477;SDS011;47345;52.334;10.392;2022-12-07T04:15:17;8.20;;;5.90;;
61477;SDS011;47345;52.334;10.392;2022-12-07T04:17:49;12.80;;;6.70;;
61477;SDS011;47345;52.334;10.392;2022-12-07T04:20:20;10.30;;;5.50;;
61477;SDS011;47345;52.334;10.392;2022-12-07T04:22:50;6.90;;;4.80;;
61477;SDS011;47345;52.334;10.392;2022-12-07T04:25:21;10.30;;;6.40;;
61477;SDS011;47345;52.334;10.392;2022-12-07T04:27:51;9.40;;;6.00;;
61477;SDS011;47345;52.334;10.392;2022-12-07T04:30:22;8.00;;;5.90;;
61477;SDS011;47345;52.334;10.392;2022-12-07T04:32:53;6.90;;;5.00;;
61477;SDS011;47345;52.334;10.392;2022-12-07T04:35:24;8.80;;;5.50;;
61477;SDS011;47345;52.334;10.392;2022-12-07T04:37:55;8.70;;;5.30;;
61477;SDS011;47345;52.334;10.392;2022-12-07T04:40:25;6.90;;;4.90;;
61477;SDS011;47345;52.334;10.392;2022-12-07T04:42:56;4.80;;;4.10;;
61477;SDS011;47345;52.334;10.392;2022-12-07T04:45:27;7.90;;;5.20;;
61477;SDS011;47345;52.334;10.392;2022-12-07T04:47:57;6.10;;;4.30;;
61477;SDS011;47345;52.334;10.392;2022-12-07T04:50:28;9.90;;;5.70;;
61477;SDS011;47345;52.334;10.392;2022-12-07T04:52:59;6.90;;;5.20;;
61477;SDS011;47345;52.334;10.392;2022-12-07T04:55:29;7.60;;;5.10;;
61477;SDS011;47345;52.334;10.392;2022-12-07T04:58:00;11.00;;;6.20;;
61477;SDS011;47345;52.334;10.392;2022-12-07T05:00:31;7.00;;;5.30;;
61477;SDS011;47345;52.334;10.392;2022-12-07T05:03:01;6.30;;;4.70;;
61477;SDS011;47345;52.334;10.392;2022-12-07T05:05:32;9.20;;;5.90;;
61477;SDS011;47345;52.334;10.392;2022-12-07T05:08:03;9.70;;;5.40;;
61477;SDS011;47345;52.334;10.392;2022-12-07T05:10:35;6.00;;;4.30;;
61477;SDS011;47345;52.334;10.392;2022-12-07T05:13:05;6.30;;;4.80;;
61477;SDS011;47345;52.334;10.392;2022-12-07T05:15:36;6.70;;;5.00;;
61477;SDS011;47345;52.334;10.392;2022-12-07T05:18:07;7.60;;;5.20;;
61477;SDS011;47345;52.334;10.392;2022-12-07T05:20:37;5.70;;;3.80;;
61477;SDS011;47345;52.334;10.392;2022-12-07T05:23:09;6.30;;;4.80;;
61477;SDS011;47345;52.334;10.392;2022-12-07T05:25:40;6.80;;;3.70;;
61477;SDS011;47345;52.334;10.392;2022-12-07T05:28:11;9.20;;;5.40;;
61477;SDS011;47345;52.334;10.392;2022-12-07T05:30:41;4.90;;;3.90;;
61477;SDS011;47345;52.334;10.392;2022-12-07T05:33:11;5.80;;;4.30;;
61477;SDS011;47345;52.334;10.392;2022-12-07T05:35:42;6.00;;;4.10;;
61477;SDS011;47345;52.334;10.392;2022-12-07T05:38:13;5.40;;;3.70;;
61477;SDS011;47345;52.334;10.392;2022-12-07T05:40:43;8.30;;;5.40;;
61477;SDS011;47345;52.334;10.392;2022-12-07T05:43:14;7.00;;;5.20;;
61477;SDS011;47345;52.334;10.392;2022-12-07T05:45:44;8.60;;;6.00;;
61477;SDS011;47345;52.334;10.392;2022-12-07T05:48:15;5.20;;;4.30;;
61477;SDS011;47345;52.334;10.392;2022-12-07T05:50:46;8.60;;;4.90;;
61477;SDS011;47345;52.334;10.392;2022-12-07T05:53:18;4.90;;;3.90;;
61477;SDS011;47345;52.334;10.392;2022-12-07T05:55:52;6.30;;;4.90;;
61477;SDS011;47345;52.334;10.392;2022-12-07T05:58:23;5.20;;;4.20;;
61477;SDS011;47345;52.334;10.392;2022-12-07T06:01:11;7.80;;;4.50;;
61477;SDS011;47345;52.334;10.392;2022-12-07T06:03:42;6.40;;;4.20;;
61477;SDS011;47345;52.334;10.392;2022-12-07T06:06:13;6.90;;;3.60;;
61477;SDS011;47345;52.334;10.392;2022-12-07T06:08:43;3.40;;;2.90;;
61477;SDS011;47345;52.334;10.392;2022-12-07T06:11:14;5.40;;;3.00;;
61477;SDS011;47345;52.334;10.392;2022-12-07T06:14:03;2.60;;;2.30;;
61477;SDS011;47345;52.334;10.392;2022-12-07T06:16:34;2.50;;;2.30;;
61477;SDS011;47345;52.334;10.392;2022-12-07T06:19:05;2.10;;;1.90;;
61477;SDS011;47345;52.334;10.392;2022-12-07T06:21:36;2.00;;;1.90;;
61477;SDS011;47345;52.334;10.392;2022-12-07T06:24:06;2.10;;;1.90;;
61477;SDS011;47345;52.334;10.392;2022-12-07T06:26:37;3.80;;;2.30;;
61477;SDS011;47345;52.334;10.392;2022-12-07T06:29:08;3.40;;;2.40;;
61477;SDS011;47345;52.334;10.392;2022-12-07T06:31:40;4.10;;;3.00;;
61477;SDS011;47345;52.334;10.392;2022-12-07T06:34:11;3.70;;;2.70;;
61477;SDS011;47345;52.334;10.392;2022-12-07T06:36:43;2.80;;;2.60;;
61477;SDS011;47345;52.334;10.392;2022-12-07T06:39:15;4.40;;;3.40;;
61477;SDS011;47345;52.334;10.392;2022-12-07T06:41:46;4.30;;;3.20;;
61477;SDS011;47345;52.334;10.392;2022-12-07T06:44:17;3.10;;;2.80;;
61477;SDS011;47345;52.334;10.392;2022-12-07T06:46:48;5.70;;;3.10;;
61477;SDS011;47345;52.334;10.392;2022-12-07T06:49:29;4.40;;;3.20;;
61477;SDS011;47345;52.334;10.392;2022-12-07T06:51:59;3.90;;;3.10;;
61477;SDS011;47345;52.334;10.392;2022-12-07T06:54:30;6.20;;;3.50;;
61477;SDS011;47345;52.334;10.392;2022-12-07T06:57:00;4.60;;;3.20;;
61477;SDS011;47345;52.334;10.392;2022-12-07T06:59:30;5.80;;;3.80;;
61477;SDS011;47345;52.334;10.392;2022-12-07T07:02:01;4.60;;;3.70;;
61477;SDS011;47345;52.334;10.392;2022-12-07T07:04:31;4.50;;;3.50;;
61477;SDS011;47345;52.334;10.392;2022-12-07T07:07:02;5.90;;;3.60;;
61477;SDS011;47345;52.334;10.392;2022-12-07T07:09:32;4.20;;;3.50;;
61477;SDS011;47345;52.334;10.392;2022-12-07T07:12:03;4.20;;;3.40;;
61477;SDS011;47345;52.334;10.392;2022-12-07T07:14:33;8.50;;;4.30;;
61477;SDS011;47345;52.334;10.392;2022-12-07T07:17:04;3.90;;;3.40;;
61477;SDS011;47345;52.334;10.392;2022-12-07T07:19:34;4.30;;;3.40;;
61477;SDS011;47345;52.334;10.392;2022-12-07T07:22:05;6.90;;;3.70;;
61477;SDS011;47345;52.334;10.392;2022-12-07T07:24:36;5.60;;;3.10;;
61477;SDS011;47345;52.334;10.392;2022-12-07T07:27:07;6.30;;;4.20;;
61477;SDS011;47345;52.334;10.392;2022-12-07T07:29:38;7.80;;;4.50;;
61477;SDS011;47345;52.334;10.392;2022-12-07T07:32:08;4.90;;;3.50;;
61477;SDS011;47345;52.334;10.392;2022-12-07T07:34:40;5.50;;;3.90;;
61477;SDS011;47345;52.334;10.392;2022-12-07T07:37:11;5.50;;;3.60;;
61477;SDS011;47345;52.334;10.392;2022-12-07T07:39:48;3.80;;;2.60;;
61477;SDS011;47345;52.334;10.392;2022-12-07T07:42:19;4.70;;;3.40;;
61477;SDS011;47345;52.334;10.392;2022-12-07T07:44:50;3.60;;;3.00;;
61477;SDS011;47345;52.334;10.392;2022-12-07T07:47:20;6.90;;;3.40;;
61477;SDS011;47345;52.334;10.392;2022-12-07T07:49:51;3.80;;;3.10;;
61477;SDS011;47345;52.334;10.392;2022-12-07T07:52:22;4.30;;;3.50;;
61477;SDS011;47345;52.334;10.392;2022-12-07T07:54:52;4.90;;;3.50;;
61477;SDS011;47345;52.334;10.392;2022-12-07T07:57:23;4.10;;;3.20;;
61477;SDS011;47345;52.334;10.392;2022-12-07T07:59:53;5.00;;;3.90;;
61477;SDS011;47345;52.334;10.392;2022-12-07T08:02:23;5.30;;;3.10;;
61477;SDS011;47345;52.334;10.392;2022-12-07T08:04:57;3.80;;;2.70;;
61477;SDS011;47345;52.334;10.392;2022-12-07T08:07:28;7.40;;;3.90;;
61477;SDS011;47345;52.334;10.392;2022-12-07T08:09:58;3.90;;;3.10;;
61477;SDS011;47345;52.334;10.392;2022-12-07T08:12:29;4.20;;;3.10;;
61477;SDS011;47345;52.334;10.392;2022-12-07T08:15:00;3.20;;;2.90;;
61477;SDS011;47345;52.334;10.392;2022-12-07T08:17:30;3.80;;;2.90;;
61477;SDS011;47345;52.334;10.392;2022-12-07T08:20:02;4.20;;;3.30;;
61477;SDS011;47345;52.334;10.392;2022-12-07T08:22:33;3.20;;;2.30;;
61477;SDS011;47345;52.334;10.392;2022-12-07T08:25:04;3.40;;;3.10;;
61477;SDS011;47345;52.334;10.392;2022-12-07T08:27:35;4.30;;;3.20;;
61477;SDS011;47345;52.334;10.392;2022-12-07T08:30:07;2.80;;;2.30;;
61477;SDS011;47345;52.334;10.392;2022-12-07T08:32:38;4.00;;;2.80;;
61477;SDS011;47345;52.334;10.392;2022-12-07T08:35:09;3.30;;;2.60;;
61477;SDS011;47345;52.334;10.392;2022-12-07T08:37:39;2.60;;;2.30;;
61477;SDS011;47345;52.334;10.392;2022-12-07T08:40:10;2.80;;;2.60;;
61477;SDS011;47345;52.334;10.392;2022-12-07T08:42:43;2.80;;;2.30;;
61477;SDS011;47345;52.334;10.392;2022-12-07T08:45:17;5.20;;;3.10;;
61477;SDS011;47345;52.334;10.392;2022-12-07T08:47:55;2.90;;;2.40;;
61477;SDS011;47345;52.334;10.392;2022-12-07T08:50:29;4.90;;;3.30;;
61477;SDS011;47345;52.334;10.392;2022-12-07T08:53:02;3.10;;;2.30;;
61477;SDS011;47345;52.334;10.392;2022-12-07T08:55:35;2.80;;;2.30;;
61477;SDS011;47345;52.334;10.392;2022-12-07T08:58:05;2.30;;;2.10;;
61477;SDS011;47345;52.334;10.392;2022-12-07T09:00:37;2.50;;;2.20;;
61477;SDS011;47345;52.334;10.392;2022-12-07T09:03:08;2.60;;;2.40;;
61477;SDS011;47345;52.334;10.392;2022-12-07T09:05:39;2.30;;;2.10;;
61477;SDS011;47345;52.334;10.392;2022-12-07T09:08:09;4.50;;;2.40;;
61477;SDS011;47345;52.334;10.392;2022-12-07T09:10:41;2.20;;;2.00;;
61477;SDS011;47345;52.334;10.392;2022-12-07T09:13:11;2.40;;;2.10;;
61477;SDS011;47345;52.334;10.392;2022-12-07T09:15:42;3.30;;;2.20;;
61477;SDS011;47345;52.334;10.392;2022-12-07T09:18:13;4.20;;;2.20;;
61477;SDS011;47345;52.334;10.392;2022-12-07T09:20:44;2.20;;;2.00;;
61477;SDS011;47345;52.334;10.392;2022-12-07T09:23:15;2.80;;;2.60;;
61477;SDS011;47345;52.334;10.392;2022-12-07T09:25:46;3.30;;;2.60;;
61477;SDS011;47345;52.334;10.392;2022-12-07T09:28:16;4.10;;;3.00;;
61477;SDS011;47345;52.334;10.392;2022-12-07T09:30:47;3.80;;;2.70;;
61477;SDS011;47345;52.334;10.392;2022-12-07T09:33:38;4.50;;;2.80;;
61477;SDS011;47345;52.334;10.392;2022-12-07T09:36:09;3.60;;;2.40;;
61477;SDS011;47345;52.334;10.392;2022-12-07T09:38:39;3.40;;;2.70;;
61477;SDS011;47345;52.334;10.392;2022-12-07T09:41:09;3.50;;;2.60;;
61477;SDS011;47345;52.334;10.392;2022-12-07T09:43:40;3.00;;;2.50;;
61477;SDS011;47345;52.334;10.392;2022-12-07T09:46:11;2.40;;;2.10;;
61477;SDS011;47345;52.334;10.392;2022-12-07T09:48:45;3.30;;;2.80;;
61477;SDS011;47345;52.334;10.392;2022-12-07T09:51:18;1.70;;;1.60;;
61477;SDS011;47345;52.334;10.392;2022-12-07T09:53:53;4.20;;;2.30;;
61477;SDS011;47345;52.334;10.392;2022-12-07T09:56:25;1.90;;;1.80;;
61477;SDS011;47345;52.334;10.392;2022-12-07T09:58:59;2.90;;;2.60;;
61477;SDS011;47345;52.334;10.392;2022-12-07T10:01:31;2.30;;;2.10;;
61477;SDS011;47345;52.334;10.392;2022-12-07T10:04:06;2.90;;;2.60;;
61477;SDS011;47345;52.334;10.392;2022-12-07T10:06:42;4.00;;;2.70;;
61477;SDS011;47345;52.334;10.392;2022-12-07T10:09:14;6.00;;;2.70;;
61477;SDS011;47345;52.334;10.392;2022-12-07T10:12:02;3.80;;;2.80;;
61477;SDS011;47345;52.334;10.392;2022-12-07T10:14:35;2.50;;;1.90;;
61477;SDS011;47345;52.334;10.392;2022-12-07T10:17:30;2.20;;;2.00;;
61477;SDS011;47345;52.334;10.392;2022-12-07T10:20:11;2.90;;;2.60;;
61477;SDS011;47345;52.334;10.392;2022-12-07T10:22:58;2.40;;;2.20;;
61477;SDS011;47345;52.334;10.392;2022-12-07T10:25:31;3.80;;;3.10;;
61477;SDS011;47345;52.334;10.392;2022-12-07T10:30:52;5.10;;;2.60;;
61477;SDS011;47345;52.334;10.392;2022-12-07T10:33:34;4.10;;;3.10;;
61477;SDS011;47345;52.334;10.392;2022-12-07T10:36:19;4.40;;;3.60;;
61477;SDS011;47345;52.334;10.392;2022-12-07T10:38:53;5.70;;;3.80;;
61477;SDS011;47345;52.334;10.392;2022-12-07T10:41:30;4.70;;;3.10;;
61477;SDS011;47345;52.334;10.392;2022-12-07T10:44:01;5.80;;;4.00;;
61477;SDS011;47345;52.334;10.392;2022-12-07T10:46:41;6.40;;;3.90;;
61477;SDS011;47345;52.334;10.392;2022-12-07T10:49:30;4.00;;;3.40;;
61477;SDS011;47345;52.334;10.392;2022-12-07T10:52:16;6.20;;;3.50;;
61477;SDS011;47345;52.334;10.392;2022-12-07T10:54:55;6.90;;;4.30;;
61477;SDS011;47345;52.334;10.392;2022-12-07T10:57:40;4.90;;;3.60;;
61477;SDS011;47345;52.334;10.392;2022-12-07T11:00:24;3.70;;;3.10;;
61477;SDS011;47345;52.334;10.392;2022-12-07T11:03:03;4.80;;;3.50;;
61477;SDS011;47345;52.334;10.392;2022-12-07T11:05:52;5.00;;;3.20;;
61477;SDS011;47345;52.334;10.392;2022-12-07T11:08:36;4.20;;;3.40;;
61477;SDS011;47345;52.334;10.392;2022-12-07T11:11:16;3.70;;;3.00;;
61477;SDS011;47345;52.334;10.392;2022-12-07T11:13:55;5.20;;;2.80;;
61477;SDS011;47345;52.334;10.392;2022-12-07T11:16:38;5.90;;;3.30;;
61477;SDS011;47345;52.334;10.392;2022-12-07T11:19:39;5.40;;;3.50;;
61477;SDS011;47345;52.334;10.392;2022-12-07T11:22:22;6.10;;;3.30;;
61477;SDS011;47345;52.334;10.392;2022-12-07T11:25:02;5.00;;;3.20;;
61477;SDS011;47345;52.334;10.392;2022-12-07T11:27:57;2.60;;;2.30;;
61477;SDS011;47345;52.334;10.392;2022-12-07T11:30:40;5.60;;;3.70;;
61477;SDS011;47345;52.334;10.392;2022-12-07T11:33:17;4.50;;;3.70;;
61477;SDS011;47345;52.334;10.392;2022-12-07T11:35:56;4.30;;;3.10;;
61477;SDS011;47345;52.334;10.392;2022-12-07T11:38:42;3.40;;;2.70;;
61477;SDS011;47345;52.334;10.392;2022-12-07T11:41:18;2.80;;;2.60;;
61477;SDS011;47345;52.334;10.392;2022-12-07T11:43:56;2.90;;;2.60;;
61477;SDS011;47345;52.334;10.392;2022-12-07T11:46:36;3.30;;;2.50;;
61477;SDS011;47345;52.334;10.392;2022-12-07T11:49:18;4.00;;;2.50;;
61477;SDS011;47345;52.334;10.392;2022-12-07T11:51:57;2.70;;;2.50;;
61477;SDS011;47345;52.334;10.392;2022-12-07T11:54:32;3.50;;;2.80;;
61477;SDS011;47345;52.334;10.392;2022-12-07T11:57:10;3.20;;;2.40;;
61477;SDS011;47345;52.334;10.392;2022-12-07T11:59:47;3.50;;;2.60;;
61477;SDS011;47345;52.334;10.392;2022-12-07T12:02:22;3.20;;;2.60;;
61477;SDS011;47345;52.334;10.392;2022-12-07T12:05:01;3.40;;;2.50;;
61477;SDS011;47345;52.334;10.392;2022-12-07T12:07:41;2.60;;;2.10;;
61477;SDS011;47345;52.334;10.392;2022-12-07T12:10:37;1.50;;;1.40;;
61477;SDS011;47345;52.334;10.392;2022-12-07T12:13:23;1.50;;;1.40;;
61477;SDS011;47345;52.334;10.392;2022-12-07T12:16:42;2.40;;;1.50;;
61477;SDS011;47345;52.334;10.392;2022-12-07T12:19:46;1.80;;;1.70;;
61477;SDS011;47345;52.334;10.392;2022-12-07T12:22:32;3.00;;;1.90;;
61477;SDS011;47345;52.334;10.392;2022-12-07T12:25:07;2.00;;;1.80;;
61477;SDS011;47345;52.334;10.392;2022-12-07T12:27:47;1.40;;;1.30;;
61477;SDS011;47345;52.334;10.392;2022-12-07T12:30:34;1.50;;;1.40;;
61477;SDS011;47345;52.334;10.392;2022-12-07T12:33:12;2.00;;;1.40;;
61477;SDS011;47345;52.334;10.392;2022-12-07T12:35:46;1.80;;;1.30;;
61477;SDS011;47345;52.334;10.392;2022-12-07T12:39:12;1.50;;;1.40;;
61477;SDS011;47345;52.334;10.392;2022-12-07T12:41:59;1.30;;;1.30;;
61477;SDS011;47345;52.334;10.392;2022-12-07T12:47:56;1.50;;;1.40;;
61477;SDS011;47345;52.334;10.392;2022-12-07T12:50:29;1.40;;;1.30;;
61477;SDS011;47345;52.334;10.392;2022-12-07T12:53:15;2.10;;;1.50;;
61477;SDS011;47345;52.334;10.392;2022-12-07T12:59:21;1.30;;;1.30;;
61477;SDS011;47345;52.334;10.392;2022-12-07T13:01:54;1.80;;;1.70;;
61477;SDS011;47345;52.334;10.392;2022-12-07T13:04:39;1.70;;;1.60;;
61477;SDS011;47345;52.334;10.392;2022-12-07T13:10:28;1.90;;;1.80;;
61477;SDS011;47345;52.334;10.392;2022-12-07T13:13:25;2.90;;;2.00;;
61477;SDS011;47345;52.334;10.392;2022-12-07T13:25:31;2.20;;;2.00;;
61477;SDS011;47345;52.334;10.392;2022-12-07T13:28:12;3.30;;;2.20;;
61477;SDS011;47345;52.334;10.392;2022-12-07T13:33:34;2.10;;;1.90;;
61477;SDS011;47345;52.334;10.392;2022-12-07T13:36:08;2.30;;;2.10;;
61477;SDS011;47345;52.334;10.392;2022-12-07T13:38:49;2.20;;;2.00;;
61477;SDS011;47345;52.334;10.392;2022-12-07T13:41:22;2.40;;;2.20;;
61477;SDS011;47345;52.334;10.392;2022-12-07T13:43:59;2.50;;;2.20;;
61477;SDS011;47345;52.334;10.392;2022-12-07T13:46:34;2.30;;;2.10;;
61477;SDS011;47345;52.334;10.392;2022-12-07T13:49:21;5.60;;;2.10;;
61477;SDS011;47345;52.334;10.392;2022-12-07T13:51:53;2.40;;;2.20;;
61477;SDS011;47345;52.334;10.392;2022-12-07T13:54:42;2.80;;;2.10;;
61477;SDS011;47345;52.334;10.392;2022-12-07T13:57:13;5.60;;;1.90;;
61477;SDS011;47345;52.334;10.392;2022-12-07T13:59:45;2.20;;;2.00;;
61477;SDS011;47345;52.334;10.392;2022-12-07T14:02:20;1.80;;;1.60;;
61477;SDS011;47345;52.334;10.392;2022-12-07T14:05:12;2.30;;;2.10;;
61477;SDS011;47345;52.334;10.392;2022-12-07T14:07:52;2.20;;;1.90;;
61477;SDS011;47345;52.334;10.392;2022-12-07T14:10:25;4.80;;;2.10;;
61477;SDS011;47345;52.334;10.392;2022-12-07T14:12:59;4.10;;;2.20;;
61477;SDS011;47345;52.334;10.392;2022-12-07T14:15:31;3.60;;;2.00;;
61477;SDS011;47345;52.334;10.392;2022-12-07T14:18:03;1.70;;;1.50;;
61477;SDS011;47345;52.334;10.392;2022-12-07T14:20:35;2.30;;;2.10;;
61477;SDS011;47345;52.334;10.392;2022-12-07T14:23:21;2.50;;;1.90;;
61477;SDS011;47345;52.334;10.392;2022-12-07T14:25:53;2.00;;;1.90;;
61477;SDS011;47345;52.334;10.392;2022-12-07T14:28:33;3.40;;;2.40;;
61477;SDS011;47345;52.334;10.392;2022-12-07T14:31:08;3.50;;;2.00;;
61477;SDS011;47345;52.334;10.392;2022-12-07T14:33:50;2.30;;;2.10;;
61477;SDS011;47345;52.334;10.392;2022-12-07T14:36:21;2.60;;;2.40;;
61477;SDS011;47345;52.334;10.392;2022-12-07T14:38:51;6.70;;;2.40;;
61477;SDS011;47345;52.334;10.392;2022-12-07T14:41:24;3.20;;;2.60;;
61477;SDS011;47345;52.334;10.392;2022-12-07T14:44:12;2.20;;;2.00;;
61477;SDS011;47345;52.334;10.392;2022-12-07T14:46:55;4.20;;;2.30;;
61477;SDS011;47345;52.334;10.392;2022-12-07T14:49:45;2.30;;;2.10;;
61477;SDS011;47345;52.334;10.392;2022-12-07T14:52:16;4.90;;;2.30;;
61477;SDS011;47345;52.334;10.392;2022-12-07T14:55:13;4.20;;;2.50;;
61477;SDS011;47345;52.334;10.392;2022-12-07T14:57:47;3.30;;;2.20;;
61477;SDS011;47345;52.334;10.392;2022-12-07T15:00:19;1.70;;;1.60;;
61477;SDS011;47345;52.334;10.392;2022-12-07T15:02:52;2.30;;;2.00;;
61477;SDS011;47345;52.334;10.392;2022-12-07T15:05:22;3.50;;;2.30;;
61477;SDS011;47345;52.334;10.392;2022-12-07T15:07:53;3.50;;;2.30;;
61477;SDS011;47345;52.334;10.392;2022-12-07T15:10:24;3.90;;;2.20;;
61477;SDS011;47345;52.334;10.392;2022-12-07T15:12:59;3.20;;;2.20;;
61477;SDS011;47345;52.334;10.392;2022-12-07T15:15:45;2.30;;;2.10;;
61477;SDS011;47345;52.334;10.392;2022-12-07T15:18:16;2.40;;;2.00;;
61477;SDS011;47345;52.334;10.392;2022-12-07T15:20:49;4.10;;;2.10;;
61477;SDS011;47345;52.334;10.392;2022-12-07T15:23:20;1.70;;;1.50;;
61477;SDS011;47345;52.334;10.392;2022-12-07T15:25:51;3.00;;;1.80;;
61477;SDS011;47345;52.334;10.392;2022-12-07T15:28:22;1.90;;;1.70;;
61477;SDS011;47345;52.334;10.392;2022-12-07T15:30:52;3.60;;;1.80;;
61477;SDS011;47345;52.334;10.392;2022-12-07T15:33:23;1.80;;;1.50;;
61477;SDS011;47345;52.334;10.392;2022-12-07T15:35:54;1.90;;;1.80;;
61477;SDS011;47345;52.334;10.392;2022-12-07T15:38:24;2.40;;;1.50;;
61477;SDS011;47345;52.334;10.392;2022-12-07T15:41:16;1.90;;;1.70;;
61477;SDS011;47345;52.334;10.392;2022-12-07T15:43:47;2.40;;;1.80;;
61477;SDS011;47345;52.334;10.392;2022-12-07T15:46:37;3.90;;;2.20;;
61477;SDS011;47345;52.334;10.392;2022-12-07T15:49:11;1.50;;;1.40;;
61477;SDS011;47345;52.334;10.392;2022-12-07T15:51:45;1.30;;;1.20;;
61477;SDS011;47345;52.334;10.392;2022-12-07T15:54:18;1.40;;;1.30;;
61477;SDS011;47345;52.334;10.392;2022-12-07T15:56:50;1.40;;;1.30;;
61477;SDS011;47345;52.334;10.392;2022-12-07T15:59:22;1.40;;;1.20;;